Terminal Aerodrome Forecast
Issued by NWS Billings, MT

Home | Current Version | Previous Version | Graphics & Text | Print | Product List | Glossary On
Versions: 1 2 3 4 5 6 7 8 9 10 11 12 13 14
000
FTUS45 KBYZ 140539
TAFMLS
TAF
KMLS 140539Z 1406/1506 13010KT P6SM FEW100 SCT200
     FM141100 13008KT P6SM VCSH FEW050 BKN100
     FM141600 31010KT P6SM VCSH SCT050 BKN100
     FM150000 03007KT P6SM VCSH BKN100=

USA.gov is the U.S. government's official web portal to all federal, state and local government web resources and services.